createdAt,value
2019-02-05T00:02:46.855Z,21.80
2019-02-05T00:10:37.898Z,21.00
2019-02-05T00:13:26.245Z,17.87
2019-02-05T00:18:29.280Z,23.67
2019-02-05T00:20:58.028Z,24.80
2019-02-05T00:23:26.883Z,28.50
2019-02-05T00:26:05.993Z,21.83
2019-02-05T00:31:13.754Z,22.30
2019-02-05T00:34:01.611Z,22.03
2019-02-05T00:36:30.335Z,23.73
2019-02-05T00:39:18.561Z,23.10
2019-02-05T00:41:47.255Z,21.07
2019-02-05T00:44:17.690Z,23.33
2019-02-05T00:46:46.410Z,24.83
2019-02-05T00:49:15.195Z,16.73
2019-02-05T00:54:31.581Z,26.70
2019-02-05T00:57:00.284Z,18.07
2019-02-05T00:59:29.046Z,22.93
2019-02-05T01:01:57.845Z,20.23
2019-02-05T01:07:01.145Z,23.77
2019-02-05T01:09:31.557Z,21.30
2019-02-05T01:14:55.008Z,22.87
2019-02-05T01:17:42.844Z,23.03
2019-02-05T01:20:51.358Z,27.87
2019-02-05T01:23:20.105Z,22.70
2019-02-05T01:30:56.469Z,28.73
2019-02-05T01:33:25.211Z,35.23
2019-02-05T01:35:53.926Z,22.90
2019-02-05T01:38:22.651Z,25.70
2019-02-05T01:40:51.346Z,25.20
2019-02-05T01:43:20.197Z,24.27
2019-02-05T01:45:48.923Z,22.63
2019-02-05T01:48:36.894Z,20.77
2019-02-05T01:51:05.707Z,27.10
2019-02-05T01:53:34.473Z,24.53
2019-02-05T01:56:03.259Z,22.73
2019-02-05T01:58:51.081Z,25.10
2019-02-05T02:06:47.396Z,23.57
2019-02-05T02:09:16.236Z,27.53
2019-02-05T02:14:32.598Z,34.70
2019-02-05T02:17:01.338Z,31.23
2019-02-05T02:19:31.779Z,28.33
2019-02-05T02:22:19.730Z,30.47
2019-02-05T02:25:07.709Z,34.00
2019-02-05T02:27:36.358Z,30.07
2019-02-05T02:30:44.842Z,28.53
2019-02-05T02:38:24.140Z,25.10
2019-02-05T02:40:52.886Z,27.63
2019-02-05T02:43:21.596Z,24.67
2019-02-05T02:45:50.313Z,23.37
2019-02-05T02:48:19.020Z,28.40
2019-02-05T02:51:06.907Z,29.17
2019-02-05T02:53:35.622Z,28.10
2019-02-05T02:56:04.322Z,27.40
2019-02-05T03:01:22.735Z,25.37
2019-02-05T03:04:10.542Z,28.97
2019-02-05T03:06:41.113Z,29.30
2019-02-05T03:09:49.558Z,27.37
2019-02-05T03:14:52.702Z,24.60
2019-02-05T03:17:21.374Z,28.47
2019-02-05T03:19:50.072Z,30.07
2019-02-05T03:25:32.218Z,26.70
2019-02-05T03:28:01.035Z,29.57
2019-02-05T03:30:29.701Z,34.37
2019-02-05T03:32:58.497Z,24.50
2019-02-05T03:35:27.203Z,25.07
2019-02-05T03:37:57.592Z,24.07
2019-02-05T03:41:04.788Z,27.33
2019-02-05T03:49:16.200Z,31.33
2019-02-05T03:52:24.698Z,31.33
2019-02-05T03:55:33.247Z,24.57
2019-02-05T03:58:40.441Z,30.67
2019-02-05T04:01:47.758Z,27.80
2019-02-05T04:04:56.222Z,31.00
2019-02-05T04:08:03.487Z,26.73
2019-02-05T04:11:10.786Z,29.63
2019-02-05T04:14:18.011Z,35.83
2019-02-05T04:17:25.193Z,25.80
2019-02-05T04:20:34.103Z,27.33
2019-02-05T04:23:41.346Z,29.50
2019-02-05T04:26:48.572Z,27.37
2019-02-05T04:29:57.024Z,27.87
2019-02-05T04:33:05.976Z,27.10
2019-02-05T04:36:16.189Z,30.17
2019-02-05T04:39:24.679Z,25.53
2019-02-05T04:42:34.648Z,25.87
2019-02-05T04:45:40.823Z,28.23
2019-02-05T04:48:49.308Z,27.27
2019-02-05T04:51:57.793Z,26.53
2019-02-05T04:55:05.018Z,29.47
2019-02-05T04:58:13.562Z,32.97
2019-02-05T05:01:22.029Z,30.20
2019-02-05T05:04:29.256Z,30.30
2019-02-05T05:07:37.011Z,27.60
2019-02-05T05:10:45.751Z,32.53
2019-02-05T05:13:33.538Z,32.20
2019-02-05T05:16:42.020Z,34.53
2019-02-05T05:24:33.054Z,36.00
2019-02-05T05:27:41.565Z,31.67
2019-02-05T05:30:50.038Z,39.90
2019-02-05T05:33:37.879Z,28.30
2019-02-05T05:36:46.374Z,31.40
2019-02-05T05:39:34.200Z,33.47
2019-02-05T05:42:22.161Z,35.63
2019-02-05T05:44:50.831Z,43.83
2019-02-05T05:47:38.792Z,37.47
2019-02-05T05:50:47.272Z,34.00
2019-02-05T05:53:15.938Z,29.77
2019-02-05T05:56:03.912Z,32.03
2019-02-05T06:01:07.492Z,33.47
2019-02-05T06:03:36.203Z,33.13
2019-02-05T06:06:44.768Z,33.83
2019-02-05T06:09:33.239Z,34.20
2019-02-05T06:12:01.950Z,27.67
2019-02-05T06:14:30.627Z,31.20
2019-02-05T06:19:33.789Z,28.80
2019-02-05T06:22:21.743Z,28.00
2019-02-05T06:25:09.624Z,26.03
2019-02-05T06:27:38.287Z,35.87
2019-02-05T06:30:26.293Z,27.57
2019-02-05T06:33:14.213Z,26.97
2019-02-05T06:35:42.928Z,30.73
2019-02-05T06:38:11.577Z,28.57
2019-02-05T06:40:59.537Z,30.97
2019-02-05T06:43:47.507Z,29.03
2019-02-05T06:46:35.482Z,26.13
2019-02-05T06:51:59.122Z,26.37
2019-02-05T06:54:27.793Z,33.53
2019-02-05T06:57:15.605Z,27.53
2019-02-05T07:00:03.578Z,32.67
2019-02-05T07:02:53.186Z,28.40
2019-02-05T07:05:41.042Z,26.53
2019-02-05T07:10:44.225Z,29.77
2019-02-05T07:16:06.296Z,40.30
2019-02-05T07:18:54.191Z,37.33
2019-02-05T07:21:22.885Z,44.80
2019-02-05T07:23:51.588Z,39.63
2019-02-05T07:26:21.974Z,39.83
2019-02-05T07:28:58.140Z,41.93
2019-02-05T07:31:40.332Z,45.27
2019-02-05T07:34:48.821Z,45.43
2019-02-05T07:37:36.728Z,47.13
2019-02-05T07:40:45.204Z,50.40
2019-02-05T07:43:33.000Z,49.20
2019-02-05T07:46:20.956Z,43.43
2019-02-05T07:49:08.948Z,45.83
2019-02-05T07:51:56.870Z,40.20
2019-02-05T07:54:46.454Z,46.03
2019-02-05T07:57:34.339Z,43.07
2019-02-05T08:00:44.545Z,42.67
2019-02-05T08:03:32.648Z,42.90
2019-02-05T08:06:20.628Z,35.57
2019-02-05T08:08:49.293Z,35.33
2019-02-05T08:14:10.875Z,43.73
2019-02-05T08:16:39.607Z,40.43
2019-02-05T08:19:08.317Z,39.30
2019-02-05T08:21:56.283Z,41.60
2019-02-05T08:24:44.147Z,36.37
2019-02-05T08:27:32.108Z,31.97
2019-02-05T08:30:19.957Z,31.93
2019-02-05T08:33:07.940Z,34.60
2019-02-05T08:35:36.639Z,31.93
2019-02-05T08:38:45.127Z,35.50
2019-02-05T08:44:01.471Z,34.90
2019-02-05T08:46:50.972Z,30.43
2019-02-05T08:52:13.160Z,31.37
2019-02-05T08:54:41.897Z,31.73
2019-02-05T08:57:10.619Z,32.43
2019-02-05T08:59:39.279Z,29.07
2019-02-05T09:02:28.703Z,34.30
2019-02-05T09:05:16.598Z,30.13
2019-02-05T09:08:04.448Z,26.20
2019-02-05T09:10:52.416Z,31.33
2019-02-05T09:13:21.070Z,28.37
2019-02-05T09:15:49.784Z,28.87
2019-02-05T09:18:37.630Z,27.93
2019-02-05T09:21:06.339Z,27.43
2019-02-05T09:23:36.717Z,25.43
2019-02-05T09:26:05.379Z,24.50
2019-02-05T09:29:13.933Z,27.53
2019-02-05T09:31:44.361Z,29.33
2019-02-05T09:34:32.282Z,27.20
2019-02-05T09:37:01.058Z,32.30
2019-02-05T09:39:29.794Z,25.20
2019-02-05T09:41:58.515Z,25.20
2019-02-05T09:44:31.490Z,21.03
2019-02-05T09:46:59.267Z,19.83
2019-02-05T09:49:27.953Z,19.93
2019-02-05T09:51:56.607Z,18.20
2019-02-05T09:54:25.307Z,22.37
2019-02-05T09:56:53.974Z,17.43
2019-02-05T09:59:22.676Z,20.43
2019-02-05T10:01:51.554Z,16.40
2019-02-05T10:04:20.257Z,20.87
2019-02-05T10:06:50.112Z,20.07
2019-02-05T10:09:19.415Z,24.70
2019-02-05T10:11:48.176Z,18.93
2019-02-05T10:14:16.886Z,21.53
2019-02-05T10:16:45.671Z,23.73
2019-02-05T10:19:14.412Z,23.27
2019-02-05T10:21:43.117Z,23.37
2019-02-05T10:24:11.789Z,20.50
2019-02-05T10:26:40.598Z,24.10
2019-02-05T10:29:09.319Z,19.37
2019-02-05T10:31:38.130Z,21.77
2019-02-05T10:34:06.842Z,21.17
2019-02-05T10:36:35.623Z,20.13
2019-02-05T10:39:44.064Z,19.30
2019-02-05T10:42:12.755Z,19.87
2019-02-05T10:45:00.707Z,20.43
2019-02-05T10:47:29.427Z,16.57
2019-02-05T10:49:58.083Z,19.23
2019-02-05T10:52:26.783Z,16.57
2019-02-05T10:54:55.446Z,15.03
2019-02-05T10:57:24.154Z,17.80
2019-02-05T10:59:54.483Z,14.77
2019-02-05T11:02:23.211Z,18.00
2019-02-05T11:04:51.892Z,16.53
2019-02-05T11:07:20.547Z,18.03
2019-02-05T11:09:49.257Z,14.03
2019-02-05T11:12:18.006Z,17.67
2019-02-05T11:15:05.982Z,17.20
2019-02-05T11:17:34.695Z,14.87
2019-02-05T11:25:53.383Z,13.63
2019-02-05T11:28:41.357Z,14.00
2019-02-05T11:31:10.085Z,12.30
2019-02-05T11:33:58.028Z,14.10
2019-02-05T11:36:26.674Z,13.87
2019-02-05T11:38:55.486Z,15.43
2019-02-05T11:41:24.127Z,12.17
2019-02-05T11:43:52.818Z,13.60
2019-02-05T11:46:21.522Z,15.10
2019-02-05T11:48:50.260Z,13.80
2019-02-05T11:51:18.959Z,18.60
2019-02-05T11:53:47.617Z,13.70
2019-02-05T11:56:16.306Z,13.47
2019-02-05T11:58:44.961Z,13.60
2019-02-05T12:04:08.122Z,14.53
2019-02-05T12:06:36.800Z,13.10
2019-02-05T12:09:47.010Z,18.80
2019-02-05T12:12:15.702Z,15.73
2019-02-05T12:14:44.352Z,12.53
2019-02-05T12:17:14.767Z,14.50
2019-02-05T12:19:43.461Z,13.73
2019-02-05T12:22:12.173Z,13.50
2019-02-05T12:24:40.827Z,11.53
2019-02-05T12:27:09.516Z,12.30
2019-02-05T12:29:38.164Z,10.40
2019-02-05T12:32:26.214Z,14.77
2019-02-05T12:34:54.906Z,10.57
2019-02-05T12:37:23.594Z,10.30
2019-02-05T12:40:11.563Z,10.90
2019-02-05T12:42:42.031Z,10.43
2019-02-05T12:45:50.507Z,10.17
2019-02-05T12:48:19.163Z,8.43
2019-02-05T12:50:49.577Z,12.20
2019-02-05T12:53:18.375Z,13.80
2019-02-05T12:55:47.017Z,8.60
2019-02-05T12:58:15.715Z,11.63
2019-02-05T13:01:03.715Z,10.80
2019-02-05T13:03:32.491Z,11.53
2019-02-05T13:06:01.202Z,12.60
2019-02-05T13:08:29.927Z,10.77
2019-02-05T13:10:58.582Z,13.63
2019-02-05T13:13:27.275Z,13.10
2019-02-05T13:16:15.066Z,11.00
2019-02-05T13:18:43.750Z,9.73
2019-02-05T13:21:12.475Z,11.50
2019-02-05T13:23:41.192Z,11.33
2019-02-05T13:29:37.311Z,10.63
2019-02-05T13:35:14.497Z,10.57
2019-02-05T13:40:51.417Z,11.60
2019-02-05T13:43:20.078Z,11.20
2019-02-05T13:46:28.575Z,10.37
2019-02-05T13:48:57.224Z,11.70
2019-02-05T13:51:25.940Z,13.40
2019-02-05T13:53:56.354Z,14.00
2019-02-05T13:56:25.110Z,12.83
2019-02-05T13:58:53.798Z,10.70
2019-02-05T14:01:22.472Z,10.27
2019-02-05T14:03:51.171Z,10.60
2019-02-05T14:06:19.872Z,10.00
2019-02-05T14:08:48.525Z,12.17
2019-02-05T14:11:17.205Z,9.70
2019-02-05T14:13:45.956Z,12.87
2019-02-05T14:16:54.427Z,10.97
2019-02-05T14:19:23.127Z,10.63
2019-02-05T14:21:51.820Z,13.43
2019-02-05T14:24:20.593Z,10.53
2019-02-05T14:26:49.342Z,8.93
2019-02-05T14:29:17.990Z,10.77
2019-02-05T14:31:46.718Z,8.73
2019-02-05T14:37:03.063Z,9.17
2019-02-05T14:39:51.126Z,11.63
2019-02-05T14:42:19.792Z,11.17
2019-02-05T14:44:48.582Z,10.87
2019-02-05T14:47:17.351Z,10.73
2019-02-05T14:49:46.068Z,12.33
2019-02-05T14:52:14.790Z,11.03
2019-02-05T14:54:43.447Z,8.77
2019-02-05T14:57:13.862Z,8.60
2019-02-05T14:59:42.521Z,10.73
2019-02-05T15:02:11.213Z,10.73
2019-02-05T15:04:39.938Z,8.93
2019-02-05T15:07:27.823Z,13.47
2019-02-05T15:09:56.517Z,9.60
2019-02-05T15:12:25.212Z,11.13
2019-02-05T15:15:13.124Z,10.63
2019-02-05T15:17:41.819Z,10.40
2019-02-05T15:20:52.020Z,7.93
2019-02-05T15:24:00.511Z,10.97
2019-02-05T15:26:48.407Z,11.37
2019-02-05T15:29:18.850Z,11.53
2019-02-05T15:31:54.336Z,6.87
2019-02-05T15:39:47.077Z,10.27
2019-02-05T15:42:15.736Z,9.83
2019-02-05T15:45:03.685Z,8.87
2019-02-05T15:47:32.450Z,8.90
2019-02-05T15:50:06.033Z,9.43
2019-02-05T15:52:31.724Z,10.33
2019-02-05T15:55:02.073Z,10.07
2019-02-05T15:57:50.075Z,10.83
2019-02-05T16:00:39.709Z,8.03
2019-02-05T16:03:48.130Z,9.07
2019-02-05T16:06:36.123Z,9.17
2019-02-05T16:09:44.574Z,11.17
2019-02-05T16:12:13.244Z,7.63
2019-02-05T16:14:43.666Z,8.03
2019-02-05T16:17:12.319Z,7.17
2019-02-05T16:19:41.073Z,10.23
2019-02-05T16:22:11.503Z,9.20
2019-02-05T16:24:40.187Z,9.30
2019-02-05T16:27:08.886Z,11.80
2019-02-05T16:29:56.792Z,8.73
2019-02-05T16:32:25.498Z,10.97
2019-02-05T16:35:13.295Z,10.93
2019-02-05T16:38:02.565Z,10.50
2019-02-05T16:41:10.996Z,12.57
2019-02-05T16:43:39.678Z,14.53
2019-02-05T16:46:20.395Z,12.27
2019-02-05T16:48:38.858Z,14.27
2019-02-05T16:51:07.601Z,12.47
2019-02-05T16:53:43.490Z,11.87
2019-02-05T16:56:12.188Z,11.70
2019-02-05T16:58:40.883Z,12.37
2019-02-05T17:01:09.532Z,13.53
2019-02-05T17:03:38.241Z,12.13
2019-02-05T17:06:06.902Z,13.13
2019-02-05T17:08:54.746Z,15.87
2019-02-05T17:11:23.442Z,15.87
2019-02-05T17:13:53.942Z,19.27
2019-02-05T17:19:26.449Z,15.27
2019-02-05T17:21:56.883Z,18.37
2019-02-05T17:24:25.696Z,17.10
2019-02-05T17:26:54.406Z,15.83
2019-02-05T17:29:23.074Z,22.63
2019-02-05T17:31:51.845Z,23.33
2019-02-05T17:34:20.529Z,20.90
2019-02-05T17:36:49.254Z,20.30
2019-02-05T17:39:17.986Z,19.80
2019-02-05T17:44:41.772Z,17.90
2019-02-05T17:47:10.512Z,20.37
2019-02-05T17:49:58.338Z,18.43
2019-02-05T17:52:26.976Z,17.30
2019-02-05T17:54:55.668Z,22.33
2019-02-05T17:57:24.330Z,18.57
2019-02-05T17:59:54.737Z,24.37
2019-02-05T18:02:23.409Z,19.67
2019-02-05T18:05:11.285Z,20.30
2019-02-05T18:07:39.993Z,26.27
2019-02-05T18:10:48.439Z,23.57
2019-02-05T18:13:17.124Z,24.53
2019-02-05T18:15:45.837Z,19.57
2019-02-05T18:18:16.285Z,24.37
2019-02-05T18:20:45.153Z,26.83
2019-02-05T18:23:13.854Z,28.67
2019-02-05T18:26:01.853Z,24.40
2019-02-05T18:28:31.122Z,25.07
2019-02-05T18:31:00.951Z,24.73
2019-02-05T18:33:48.904Z,26.33
2019-02-05T18:36:36.869Z,27.23
2019-02-05T18:39:45.317Z,32.20
2019-02-05T18:42:14.024Z,33.43
2019-02-05T18:47:38.692Z,26.20
2019-02-05T18:50:47.629Z,36.23
2019-02-05T18:53:16.335Z,27.10
2019-02-05T18:56:24.996Z,32.60
2019-02-05T18:58:53.715Z,26.17
2019-02-05T19:01:22.507Z,31.57
2019-02-05T19:03:51.212Z,25.83
2019-02-05T19:06:59.679Z,27.47
2019-02-05T19:09:28.393Z,26.50
2019-02-05T19:11:57.064Z,30.80
2019-02-05T19:14:25.882Z,33.20
2019-02-05T19:16:56.378Z,28.63
2019-02-05T19:19:25.043Z,27.33
2019-02-05T19:22:12.985Z,27.80
2019-02-05T19:27:37.010Z,34.33
2019-02-05T19:30:45.459Z,27.60
2019-02-05T19:33:14.177Z,37.27
2019-02-05T19:35:43.420Z,33.97
2019-02-05T19:38:13.514Z,39.53
2019-02-05T19:40:42.554Z,37.20
2019-02-05T19:43:11.383Z,41.03
2019-02-05T19:46:00.903Z,35.67
2019-02-05T19:51:05.092Z,34.53
2019-02-05T19:56:07.675Z,37.67
2019-02-05T20:01:25.756Z,29.77
2019-02-05T20:03:54.430Z,37.43
2019-02-05T20:06:42.647Z,35.37
2019-02-05T20:09:51.301Z,36.67
2019-02-05T20:12:20.022Z,26.03
2019-02-05T20:14:50.475Z,36.03
2019-02-05T20:17:38.423Z,36.63
2019-02-05T20:20:26.413Z,31.70
2019-02-05T20:23:14.887Z,41.57
2019-02-05T20:25:43.575Z,28.83
2019-02-05T20:28:12.290Z,34.20
2019-02-05T20:30:41.152Z,39.60
2019-02-05T20:33:09.944Z,38.00
2019-02-05T20:35:38.636Z,34.67
2019-02-05T20:38:07.542Z,33.10
2019-02-05T20:40:36.207Z,40.27
2019-02-05T20:43:05.727Z,39.50
2019-02-05T20:45:34.465Z,36.50
2019-02-05T20:48:03.128Z,37.10
2019-02-05T20:50:31.902Z,37.57
2019-02-05T20:53:00.565Z,32.63
2019-02-05T20:55:29.364Z,38.53
2019-02-05T20:57:58.038Z,39.23
2019-02-05T21:00:47.462Z,39.23
2019-02-05T21:03:35.251Z,34.20
2019-02-05T21:06:04.111Z,34.93
2019-02-05T21:08:32.810Z,34.37
2019-02-05T21:11:20.666Z,38.13
2019-02-05T21:13:49.385Z,34.50
2019-02-05T21:16:37.181Z,37.43
2019-02-05T21:19:05.929Z,31.90
2019-02-05T21:21:34.605Z,33.53
2019-02-05T21:24:22.607Z,28.17
2019-02-05T21:26:51.269Z,38.90
2019-02-05T21:29:19.933Z,44.60
2019-02-05T21:31:48.749Z,35.80
2019-02-05T21:34:17.410Z,40.77
2019-02-05T21:36:46.065Z,39.47
2019-02-05T21:39:14.829Z,28.33
2019-02-05T21:41:43.607Z,33.63
2019-02-05T21:44:12.256Z,36.90
2019-02-05T21:46:41.483Z,32.27
2019-02-05T21:49:10.143Z,37.37
2019-02-05T21:51:40.933Z,33.50
2019-02-05T21:54:09.326Z,36.20
2019-02-05T21:56:38.111Z,33.03
2019-02-05T21:59:06.839Z,42.13
2019-02-05T22:01:36.031Z,31.43
2019-02-05T22:04:04.871Z,36.37
2019-02-05T22:07:13.307Z,37.73
2019-02-05T22:10:01.419Z,38.77
2019-02-05T22:12:31.710Z,38.13
2019-02-05T22:15:00.426Z,37.60
2019-02-05T22:17:29.313Z,34.13
2019-02-05T22:19:58.089Z,41.83
2019-02-05T22:26:01.591Z,33.23
2019-02-05T22:28:30.311Z,28.77
2019-02-05T22:31:00.812Z,36.95
2019-02-05T22:33:29.480Z,33.30
2019-02-05T22:36:19.181Z,32.90
2019-02-05T22:38:47.850Z,36.33
2019-02-05T22:41:18.262Z,36.30
2019-02-05T22:44:06.081Z,35.73
2019-02-05T22:46:53.973Z,34.63
2019-02-05T22:49:41.856Z,31.37
2019-02-05T22:52:29.689Z,29.57
2019-02-05T22:54:58.393Z,36.27
2019-02-05T23:04:11.652Z,30.03
2019-02-05T23:07:21.814Z,28.43
2019-02-05T23:10:30.281Z,33.30
2019-02-05T23:12:58.973Z,38.67
2019-02-05T23:15:46.893Z,27.37
2019-02-05T23:18:15.573Z,30.80
2019-02-05T23:20:44.262Z,30.00
2019-02-05T23:23:13.326Z,30.40
2019-02-05T23:25:42.023Z,29.17
2019-02-05T23:28:10.703Z,33.00
2019-02-05T23:33:34.264Z,33.10
2019-02-05T23:36:03.026Z,38.50
2019-02-05T23:38:31.727Z,37.30
2019-02-05T23:41:00.580Z,34.90
2019-02-05T23:43:31.165Z,32.93
2019-02-05T23:46:01.697Z,40.40
2019-02-05T23:48:30.235Z,31.20
2019-02-05T23:50:59.014Z,30.27
2019-02-05T23:53:27.730Z,33.57
2019-02-05T23:58:44.026Z,32.00
